createdAt,value
2023-05-16T00:01:34.347Z,995.39
2023-05-16T00:06:38.463Z,995.25
2023-05-16T00:11:42.628Z,995.36
2023-05-16T00:16:46.804Z,995.29
2023-05-16T00:21:50.936Z,995.47
2023-05-16T00:26:55.094Z,995.46
2023-05-16T00:31:59.332Z,995.42
2023-05-16T00:37:03.413Z,995.43
2023-05-16T00:42:07.563Z,995.43
2023-05-16T00:47:11.770Z,995.44
2023-05-16T00:52:15.935Z,995.49
2023-05-16T01:02:24.270Z,995.37
2023-05-16T01:07:28.390Z,995.35
2023-05-16T01:12:32.560Z,995.38
2023-05-16T01:17:36.774Z,995.38
2023-05-16T01:22:40.893Z,995.43
2023-05-16T01:27:45.017Z,995.38
2023-05-16T01:32:49.287Z,995.41
2023-05-16T01:37:51.455Z,995.39
2023-05-16T01:42:55.601Z,995.47
2023-05-16T01:47:59.863Z,995.50
2023-05-16T01:53:03.974Z,995.78
2023-05-16T01:58:08.095Z,996.03
2023-05-16T02:03:12.464Z,996.38
2023-05-16T02:08:16.422Z,996.54
2023-05-16T02:13:20.587Z,996.68
2023-05-16T02:18:24.758Z,996.79
2023-05-16T02:23:28.895Z,996.94
2023-05-16T02:28:33.089Z,996.87
2023-05-16T02:33:37.219Z,996.97
2023-05-16T02:38:41.410Z,997.06
2023-05-16T02:43:47.027Z,997.10
2023-05-16T02:48:49.741Z,997.25
2023-05-16T02:53:53.898Z,997.47
2023-05-16T02:58:58.021Z,997.39
2023-05-16T03:04:02.293Z,997.52
2023-05-16T03:09:06.340Z,997.48
2023-05-16T03:14:10.532Z,997.55
2023-05-16T03:19:14.738Z,997.64
2023-05-16T03:24:18.864Z,997.61
2023-05-16T03:29:23.028Z,997.65
2023-05-16T03:34:27.200Z,997.59
2023-05-16T03:39:31.325Z,997.65
2023-05-16T03:44:35.518Z,997.67
2023-05-16T03:49:39.708Z,997.78
2023-05-16T03:54:43.863Z,997.90
2023-05-16T03:59:47.968Z,997.98
2023-05-16T04:04:52.150Z,998.07
2023-05-16T04:09:56.339Z,998.17
2023-05-16T04:15:00.492Z,998.45
2023-05-16T04:20:04.772Z,998.65
2023-05-16T04:25:08.825Z,998.74
2023-05-16T04:30:12.944Z,998.99
2023-05-16T04:35:17.145Z,999.08
2023-05-16T04:40:21.266Z,999.29
2023-05-16T04:45:25.626Z,999.42
2023-05-16T04:50:29.604Z,999.63
2023-05-16T04:55:33.836Z,999.73
2023-05-16T05:00:37.934Z,999.80
2023-05-16T05:05:42.128Z,999.80
2023-05-16T05:10:46.284Z,1000.01
2023-05-16T05:15:50.421Z,999.96
2023-05-16T05:20:54.571Z,1000.07
2023-05-16T05:25:58.738Z,1000.25
2023-05-16T05:31:02.884Z,1000.36
2023-05-16T05:36:07.046Z,1000.36
2023-05-16T05:41:11.244Z,1000.38
2023-05-16T05:51:19.531Z,1000.47
2023-05-16T05:56:23.714Z,1000.56
2023-05-16T06:01:27.878Z,1000.68
2023-05-16T06:06:31.993Z,1000.80
2023-05-16T06:11:36.227Z,1000.93
2023-05-16T06:16:40.485Z,1001.10
2023-05-16T06:21:44.553Z,1001.15
2023-05-16T06:26:48.697Z,1001.15
2023-05-16T06:31:52.917Z,1001.10
2023-05-16T06:36:57.002Z,1001.04
2023-05-16T06:42:01.136Z,1001.32
2023-05-16T06:47:05.504Z,1001.34
2023-05-16T06:52:09.497Z,1001.28
2023-05-16T06:57:13.625Z,1001.29
2023-05-16T07:02:17.849Z,1001.25
2023-05-16T07:07:20.083Z,1001.26
2023-05-16T07:12:24.239Z,1001.35
2023-05-16T07:17:28.407Z,1001.34
2023-05-16T07:22:32.546Z,1001.30
2023-05-16T07:27:36.739Z,1001.27
2023-05-16T07:32:40.930Z,1001.09
2023-05-16T07:37:45.048Z,1001.17
2023-05-16T07:42:49.185Z,1001.15
2023-05-16T07:47:53.455Z,1001.37
2023-05-16T07:52:57.496Z,1001.34
2023-05-16T07:58:01.674Z,1001.30
2023-05-16T08:03:05.935Z,1001.20
2023-05-16T08:08:10.032Z,1001.15
2023-05-16T08:13:14.160Z,1000.84
2023-05-16T08:18:20.693Z,1000.82
2023-05-16T08:23:22.460Z,1000.47
2023-05-16T08:28:26.716Z,1000.43
2023-05-16T08:33:30.790Z,1000.74
2023-05-16T08:38:34.969Z,1000.53
2023-05-16T08:43:39.154Z,1000.50
2023-05-16T08:48:43.314Z,1000.42
2023-05-16T08:53:47.457Z,1000.73
2023-05-16T08:58:51.609Z,1000.60
2023-05-16T09:03:55.793Z,1000.84
2023-05-16T09:08:59.948Z,1000.42
2023-05-16T09:14:04.091Z,1000.33
2023-05-16T09:19:08.334Z,1000.52
2023-05-16T09:24:12.445Z,1000.00
2023-05-16T09:29:16.585Z,1000.16
2023-05-16T09:34:20.753Z,999.91
2023-05-16T09:39:24.929Z,1001.68
2023-05-16T09:44:29.107Z,1002.22
2023-05-16T09:49:33.482Z,1002.44
2023-05-16T09:54:37.386Z,1002.55
2023-05-16T09:59:41.575Z,1002.91
2023-05-16T10:04:45.707Z,1003.91
2023-05-16T10:09:49.867Z,1004.62
2023-05-16T10:14:53.999Z,1005.99
2023-05-16T10:19:58.160Z,1006.73
2023-05-16T10:25:02.327Z,1007.19
2023-05-16T10:30:06.515Z,1007.66
2023-05-16T10:35:10.719Z,1008.21
2023-05-16T10:40:14.798Z,1008.32
2023-05-16T10:45:18.981Z,1008.04
2023-05-16T10:50:23.133Z,1008.27
2023-05-16T10:55:27.523Z,1008.42
2023-05-16T11:00:31.453Z,1007.82
2023-05-16T11:05:35.622Z,1007.75
2023-05-16T11:10:39.764Z,1007.79
2023-05-16T11:15:43.928Z,1007.81
2023-05-16T11:20:48.100Z,1008.47
2023-05-16T11:25:52.294Z,1008.52
2023-05-16T11:30:56.436Z,1008.72
2023-05-16T11:36:11.481Z,1008.37
2023-05-16T11:41:04.760Z,1008.54
2023-05-16T11:46:08.952Z,1008.73
2023-05-16T11:51:13.103Z,1008.58
2023-05-16T11:56:17.194Z,1008.52
2023-05-16T12:01:21.348Z,1008.19
2023-05-16T12:06:25.551Z,1004.99
2023-05-16T12:11:29.702Z,999.13
2023-05-16T12:16:33.953Z,999.73
2023-05-16T12:21:38.020Z,999.10
2023-05-16T12:26:42.223Z,998.62
2023-05-16T12:31:46.379Z,998.80
2023-05-16T12:36:48.616Z,1000.77
2023-05-16T12:41:52.761Z,1001.17
2023-05-16T12:46:56.960Z,1000.92
2023-05-16T12:52:01.107Z,1001.14
2023-05-16T12:57:05.268Z,1002.94
2023-05-16T13:02:09.508Z,1003.55
2023-05-16T13:07:11.684Z,1004.37
2023-05-16T13:12:15.858Z,1004.29
2023-05-16T13:17:19.997Z,1004.71
2023-05-16T13:22:24.170Z,1005.18
2023-05-16T13:27:28.338Z,1005.34
2023-05-16T13:32:32.513Z,1005.61
2023-05-16T13:37:36.613Z,1005.61
2023-05-16T13:42:40.778Z,1005.43
2023-05-16T13:47:46.740Z,1005.11
2023-05-16T13:52:49.112Z,1005.38
2023-05-16T13:57:53.303Z,1006.40
2023-05-16T14:02:57.463Z,1007.16
2023-05-16T14:08:01.584Z,1008.90
2023-05-16T14:13:05.733Z,1009.37
2023-05-16T14:18:09.926Z,1009.74
2023-05-16T14:23:14.068Z,1009.95
2023-05-16T14:28:18.217Z,1010.09
2023-05-16T14:33:22.424Z,1009.87
2023-05-16T14:38:26.585Z,1010.15
2023-05-16T14:43:30.709Z,1010.36
2023-05-16T14:48:34.851Z,1010.40
2023-05-16T14:53:39.000Z,1010.41
2023-05-16T14:58:43.222Z,1010.41
2023-05-16T15:03:55.564Z,1010.44
2023-05-16T15:08:51.552Z,1010.39
2023-05-16T15:13:55.684Z,1010.21
2023-05-16T15:18:59.934Z,1010.51
2023-05-16T15:24:04.092Z,1010.43
2023-05-16T15:29:08.168Z,1010.50
2023-05-16T15:34:12.333Z,1010.34
2023-05-16T15:39:16.639Z,1010.28
2023-05-16T15:44:20.675Z,1010.26
2023-05-16T15:49:24.765Z,1009.90
2023-05-16T15:54:29.747Z,1009.44
2023-05-16T15:59:33.110Z,1009.77
2023-05-16T16:04:37.270Z,1009.61
2023-05-16T16:09:41.428Z,1009.49
2023-05-16T16:14:45.583Z,1009.71
2023-05-16T16:19:49.739Z,1009.88
2023-05-16T16:24:53.920Z,1010.20
2023-05-16T16:29:58.101Z,1010.07
2023-05-16T16:35:02.243Z,1010.09
2023-05-16T16:40:06.357Z,1010.09
2023-05-16T16:45:10.575Z,1010.05
2023-05-16T16:50:14.689Z,1009.98
2023-05-16T16:55:18.866Z,1009.76
2023-05-16T17:00:23.028Z,1009.61
2023-05-16T17:05:27.474Z,1008.63
2023-05-16T17:10:31.340Z,1007.78
2023-05-16T17:15:35.527Z,1008.03
2023-05-16T17:20:39.648Z,1007.78
2023-05-16T17:25:43.834Z,1008.00
2023-05-16T17:30:47.991Z,1007.70
2023-05-16T17:35:52.136Z,1006.25
2023-05-16T17:40:56.313Z,1004.95
2023-05-16T17:46:00.518Z,1004.28
2023-05-16T17:51:04.622Z,1001.89
2023-05-16T17:56:08.782Z,1001.20
2023-05-16T18:01:12.981Z,1000.63
2023-05-16T18:06:17.247Z,1000.48
2023-05-16T18:11:21.281Z,1000.50
2023-05-16T18:16:25.445Z,1000.69
2023-05-16T18:21:29.588Z,1000.84
2023-05-16T18:26:33.809Z,1001.15
2023-05-16T18:31:37.913Z,1001.12
2023-05-16T18:36:40.157Z,1001.20
2023-05-16T18:46:48.517Z,1001.24
2023-05-16T18:51:52.669Z,1001.53
2023-05-16T18:56:56.868Z,1002.10
2023-05-16T19:02:01.028Z,1001.94
2023-05-16T19:07:06.657Z,1001.93
2023-05-16T19:12:09.325Z,1001.92
2023-05-16T19:17:13.504Z,1001.94
2023-05-16T19:22:17.653Z,1001.99
2023-05-16T19:27:21.820Z,1002.10
2023-05-16T19:32:26.047Z,1002.21
2023-05-16T19:37:30.108Z,1002.20
2023-05-16T19:42:34.285Z,1002.28
2023-05-16T19:47:38.609Z,1002.29
2023-05-16T19:52:42.641Z,1002.33
2023-05-16T19:57:46.814Z,1002.52
2023-05-16T20:02:51.048Z,1002.57
2023-05-16T20:07:55.071Z,1002.57
2023-05-16T20:12:59.268Z,1002.76
2023-05-16T20:18:03.541Z,1002.79
2023-05-16T20:23:07.610Z,1003.01
2023-05-16T20:28:11.787Z,1003.07
2023-05-16T20:33:15.939Z,1003.25
2023-05-16T20:38:20.097Z,1003.33
2023-05-16T20:48:28.456Z,1003.82
2023-05-16T20:53:32.577Z,1004.09
2023-05-16T20:58:36.765Z,1004.25
2023-05-16T21:03:40.874Z,1004.24
2023-05-16T21:08:45.036Z,1004.37
2023-05-16T21:13:49.182Z,1004.36
2023-05-16T21:18:53.528Z,1004.40
2023-05-16T21:23:57.505Z,1004.64
2023-05-16T21:29:01.658Z,1004.61
2023-05-16T21:34:05.920Z,1004.74
2023-05-16T21:39:09.969Z,1004.85
2023-05-16T21:44:14.133Z,1004.76
2023-05-16T21:49:18.319Z,1004.83
2023-05-16T21:54:22.419Z,1004.89
2023-05-16T21:59:26.625Z,1004.95
2023-05-16T22:04:30.870Z,1004.85
2023-05-16T22:09:34.935Z,1004.81
2023-05-16T22:14:39.107Z,1004.80
2023-05-16T22:19:43.362Z,1004.73
2023-05-16T22:24:47.434Z,1004.72
2023-05-16T22:29:51.577Z,1004.89
2023-05-16T22:34:55.759Z,1004.97
2023-05-16T22:40:00.007Z,1004.95
2023-05-16T22:45:04.087Z,1005.14
2023-05-16T22:50:08.242Z,1005.20
2023-05-16T22:55:12.397Z,1005.34
2023-05-16T23:00:16.534Z,1005.37
2023-05-16T23:05:20.730Z,1005.52
2023-05-16T23:10:24.845Z,1005.49
2023-05-16T23:15:29.265Z,1005.57
2023-05-16T23:20:33.222Z,1005.71
2023-05-16T23:25:37.369Z,1005.65
2023-05-16T23:30:41.562Z,1005.71
2023-05-16T23:35:45.706Z,1005.60
2023-05-16T23:40:49.836Z,1005.59
2023-05-16T23:45:54.018Z,1005.55
2023-05-16T23:50:58.170Z,1005.56
2023-05-16T23:56:02.325Z,1005.60
